Latest Weather Observations for Mount Magnet Airport

IDW60801

Issued at 2:13 pm WST Tuesday 16 August 2022 (issued every 10 minutes, with the page automatically refreshed every 10 minutes)

About weather observations | Map of weather stations | Latest weather observations for WA | Other Formats
Station Details ID: 007600 Name: MOUNT MAGNET AERO Lat: -28.12 Lon: 117.84 Height: 407.0 m
Data from the previous 72 hours. | See also: Recent months at Mount Magnet Airport
Date/Time
WST
Temp
°C
App
Temp
°C
Dew
Point
°C
Rel
Hum
%
Delta-T
°C
Wind Press
QNH
hPa
Press
MSL
hPa
Rain since
9am
mm
Dir  Spd
km/h
Gust
km/h
Spd
kts
Gust
kts
16/02:00pm 17.0 14.8 16.0 94 0.6 NW 22 32 12 17 1011.0 1010.4 12.8
16/01:30pm 16.8 13.9 16.0 95 0.5 WNW 26 33 14 18 1011.9 1011.3 12.0
16/01:27pm 16.9 14.0 16.1 95 0.5 WNW 26 33 14 18 1011.8 1011.2 11.8
16/01:13pm 16.7 14.1 15.9 95 0.5 NW 24 35 13 19 1011.9 1011.3 11.6
16/01:03pm 16.8 13.9 16.0 95 0.5 NW 26 39 14 21 1012.1 1011.5 11.0
16/01:00pm 16.7 14.1 15.9 95 0.5 NW 24 39 13 21 1012.1 1011.5 10.8
16/12:50pm 16.8 14.2 16.0 95 0.5 WNW 24 32 13 17 1011.8 1011.2 10.8
16/12:48pm 16.8 14.2 16.0 95 0.5 WNW 24 32 13 17 1011.8 1011.2 10.8
16/12:30pm 16.6 14.0 16.0 96 0.4 NW 24 32 13 17 1012.3 1011.7 9.8
16/12:27pm 16.5 13.8 15.7 95 0.5 NW 24 32 13 17 1012.4 1011.8 9.8
16/12:15pm 16.7 13.3 15.9 95 0.5 WNW 28 37 15 20 1012.4 1011.8 9.0
16/12:00pm 16.7 14.6 16.1 96 0.4 WNW 22 30 12 16 1012.4 1011.8 8.2
16/11:35am 16.9 13.5 15.8 93 0.7 WNW 28 39 15 21 1012.4 1011.8 6.2
16/11:30am 17.1 14.1 15.8 92 0.8 WNW 26 39 14 21 1012.5 1011.9 6.0
16/11:15am 17.4 14.2 16.4 94 0.6 WNW 28 35 15 19 1012.1 1011.5 6.0
16/11:12am 17.5 14.8 16.7 95 0.5 WNW 26 35 14 19 1012.2 1011.6 6.0
16/11:00am 17.4 15.2 16.8 96 0.4 WNW 24 39 13 21 1012.5 1011.9 6.0
16/10:52am 17.7 16.4 17.2 97 0.3 NW 20 30 11 16 1012.6 1012.0 5.6
16/10:40am 17.8 16.5 17.3 97 0.3 WNW 20 28 11 15 1012.8 1012.2 5.0
16/10:30am 17.7 16.4 17.2 97 0.3 WNW 20 28 11 15 1012.6 1012.0 4.6
16/10:06am 17.8 16.5 17.2 96 0.4 WNW 20 26 11 14 1012.4 1011.8 2.4
16/10:00am 17.8 16.7 17.2 96 0.4 NW 19 28 10 15 1012.4 1011.8 2.2
16/09:54am 17.9 16.7 17.4 97 0.3 WNW 20 28 11 15 1012.4 1011.8 2.2
16/09:31am 17.7 16.0 17.2 97 0.3 NW 22 28 12 15 1012.2 1011.6 2.0
16/09:30am 17.7 16.0 17.2 97 0.3 NW 22 32 12 17 1012.3 1011.7 2.0
16/09:00am 17.6 14.2 16.8 95 0.5 NW 30 41 16 22 1012.4 1011.8 4.4
16/08:57am 17.6 14.6 16.8 95 0.5 NW 28 35 15 19 1012.3 1011.7 4.2
16/08:42am 17.8 15.3 17.2 96 0.4 NNW 26 32 14 17 1011.8 1011.2 3.4
16/08:30am 17.6 14.7 17.0 96 0.4 NNW 28 35 15 19 1011.8 1011.2 3.4
16/08:14am 17.4 14.7 16.6 95 0.5 NW 26 35 14 19 1011.8 1011.2 3.0
16/08:00am 17.7 13.9 16.6 93 0.7 NW 32 41 17 22 1011.5 1010.8 2.2
16/07:36am 17.7 14.7 16.7 94 0.6 NNW 28 50 15 27 1011.2 1010.6 1.6
16/07:33am 17.8 15.2 16.8 94 0.6 NNW 26 33 14 18 1011.5 1010.8 1.6
16/07:30am 17.9 15.3 16.9 94 0.6 NNW 26 35 14 19 1011.4 1010.7 1.4
16/07:00am 17.9 14.8 16.6 92 0.8 NW 28 35 15 19 1010.9 1010.3 0.8
16/06:30am 19.2 12.3 15.5 79 2.2 NW 46 65 25 35 1010.8 1010.2 0.4
16/06:22am 19.8 13.3 15.2 75 2.8 NW 43 65 23 35 1010.7 1010.1 0.4
16/06:00am 20.2 15.6 15.0 72 3.1 NNW 33 46 18 25 1010.2 1009.6 0.4
16/05:30am 19.7 15.4 15.4 76 2.6 NNW 32 43 17 23 1009.8 1009.2 0.4
16/05:00am 19.7 14.7 15.1 75 2.8 NNW 35 46 19 25 1009.7 1009.1 0.4
16/04:30am 19.9 15.4 15.3 75 2.8 NW 33 43 18 23 1010.0 1009.4 0.4
16/04:00am 20.2 16.3 15.4 74 2.9 WNW 30 39 16 21 1010.2 1009.6 0.4
16/03:30am 21.0 17.0 15.1 69 3.5 NW 30 41 16 22 1010.4 1009.8 0.4
16/03:00am 21.5 18.7 15.3 68 3.8 WNW 24 30 13 16 1010.3 1009.7 0.4
16/02:30am 21.5 20.7 15.1 67 3.9 W 13 15 7 8 1010.5 1009.9 0.4
16/02:00am 23.4 18.4 13.3 53 6.0 WNW 32 46 17 25 1010.3 1009.7 0.4
16/01:30am 25.2 20.1 10.6 39 8.3 NW 28 39 15 21 1010.2 1009.6 0.4
16/01:00am 25.3 21.4 10.7 40 8.3 NW 22 28 12 15 1010.1 1009.5 0.4
16/12:30am 25.1 21.6 10.9 41 8.1 NW 20 28 11 15 1010.2 1009.6 0.4
16/12:00am 25.1 21.0 11.3 42 7.9 NNW 24 33 13 18 1010.3 1009.7 0.4
 
Date/Time
WST
Temp
°C
App
Temp
°C
Dew
Point
°C
Rel
Hum
%
Delta-T
°C
Wind Press
QNH
hPa
Press
MSL
hPa
Rain since
9am
mm
Dir  Spd
km/h
Gust
km/h
Spd
kts
Gust
kts
15/11:30pm 25.2 21.0 11.0 41 8.1 NW 24 32 13 17 1010.6 1010.0 0.4
15/11:00pm 25.7 20.7 11.1 40 8.4 NW 28 37 15 20 1010.5 1009.9 0.4
15/10:31pm 26.1 20.4 11.1 39 8.6 NNW 32 52 17 28 1010.8 1010.2 0.4
15/10:30pm 26.1 20.4 11.1 39 8.6 NNW 32 48 17 26 1010.8 1010.2 0.4
15/10:00pm 25.7 22.5 11.1 40 8.4 N 19 26 10 14 1010.2 1009.6 0.4
15/09:30pm 25.4 22.6 11.2 41 8.2 N 17 20 9 11 1010.4 1009.8 0.4
15/09:00pm 25.8 23.0 11.2 40 8.4 N 17 20 9 11 1010.6 1010.0 0.4
15/08:30pm 26.5 23.1 11.4 39 8.7 N 20 26 11 14 1010.7 1010.1 0.4
15/08:00pm 26.4 23.0 11.3 39 8.7 N 20 24 11 13 1010.7 1010.1 0.4
15/07:30pm 25.9 23.6 11.6 40 8.3 N 15 20 8 11 1010.6 1010.0 0.4
15/07:00pm 25.0 23.1 11.9 44 7.6 N 13 15 7 8 1010.4 1009.8 0.4
15/06:30pm 25.6 24.0 11.7 42 8.1 N 11 13 6 7 1010.2 1009.6 0.4
15/06:00pm 26.6 24.2 11.5 39 8.8 N 15 17 8 9 1010.2 1009.6 0.4
15/05:30pm 27.4 24.0 11.4 37 9.3 NNW 20 30 11 16 1010.3 1009.7 0.4
15/05:00pm 28.0 23.0 11.1 35 9.8 NNW 28 39 15 21 1010.4 1009.8 0.4
15/04:30pm 28.1 23.2 11.2 35 9.8 NNW 28 37 15 20 1010.8 1010.2 0.4
15/04:00pm 28.6 23.3 11.2 34 10.2 NNW 30 46 16 25 1010.8 1010.2 0.4
15/03:58pm 28.3 23.3 10.9 34 10.1 NNW 28 46 15 25 1010.7 1010.1 0.4
15/03:30pm 28.4 23.6 11.5 35 9.9 NNW 28 39 15 21 1010.9 1010.3 0.4
15/03:00pm 28.4 23.6 11.5 35 9.9 N 28 39 15 21 1011.2 1010.6 0.4
15/02:30pm 28.0 22.8 11.5 35 9.6 N 30 41 16 22 1011.7 1011.0 0.4
15/02:00pm 27.0 24.0 11.9 39 8.8 NNE 19 26 10 14 1012.5 1011.9 0.4
15/01:30pm 26.0 22.3 11.4 40 8.4 NNE 22 32 12 17 1013.1 1012.5 0.4
15/01:00pm 25.5 21.9 12.0 43 7.9 N 22 30 12 16 1013.8 1013.3 0.4
15/12:30pm 23.7 22.2 12.0 47 6.8 NNE 11 15 6 8 1014.8 1014.2 0.4
15/12:00pm 22.8 21.1 12.4 52 6.0 NNE 13 17 7 9 1015.5 1014.9 0.4
15/11:30am 21.8 18.8 11.8 53 5.7 N 19 24 10 13 1016.0 1015.5 0.4
15/11:00am 21.0 19.2 13.4 62 4.4 NNW 15 20 8 11 1016.7 1016.1 0.4
15/10:30am 22.6 19.6 10.7 47 6.7 NNE 17 26 9 14 1016.4 1015.9 0.0
15/10:00am 22.1 17.6 9.9 46 6.7 NNE 24 32 13 17 1016.8 1016.2 0.0
15/09:30am 19.8 15.2 9.7 52 5.5 NNE 24 32 13 17 1016.9 1016.3 0.0
15/09:00am 18.1 14.1 8.9 55 4.9 NNE 20 30 11 16 1017.1 1016.5 0.0
15/08:30am 17.1 13.0 8.5 57 4.5 NNE 20 30 11 16 1017.0 1016.4 0.0
15/08:00am 16.0 11.9 8.0 59 4.1 NNE 19 26 10 14 1017.2 1016.6 0.0
15/07:30am 14.5 10.8 7.8 64 3.4 NNE 17 22 9 12 1017.1 1016.5 0.0
15/07:00am 13.8 10.8 7.8 67 3.0 NNE 13 17 7 9 1016.9 1016.3 0.0
15/06:30am 13.4 10.4 7.6 68 2.9 NNE 13 17 7 9 1016.8 1016.2 0.0
15/06:00am 13.0 10.0 7.5 69 2.7 NNE 13 15 7 8 1016.3 1015.8 0.0
15/05:30am 13.4 10.4 7.6 68 2.9 NNE 13 17 7 9 1016.2 1015.7 0.0
15/05:00am 13.2 10.1 7.4 68 2.9 NNE 13 17 7 9 1016.3 1015.8 0.0
15/04:30am 12.0 9.3 7.3 73 2.3 NNE 11 13 6 7 1016.6 1016.0 0.0
15/04:00am 12.1 9.3 7.0 71 2.5 NNE 11 13 6 7 1016.6 1016.0 0.0
15/03:30am 11.9 9.5 6.8 71 2.5 NE 9 11 5 6 1016.8 1016.2 0.0
15/03:00am 12.4 10.0 7.1 70 2.6 NE 9 11 5 6 1017.0 1016.4 0.0
15/02:30am 13.0 10.2 7.0 67 3.0 NE 11 15 6 8 1016.9 1016.3 0.0
15/02:00am 12.5 9.7 7.0 69 2.7 NE 11 13 6 7 1017.0 1016.4 0.0
15/01:30am 12.6 10.6 7.1 69 2.7 ENE 7 9 4 5 1017.2 1016.6 0.0
15/01:00am 13.1 10.4 7.3 68 2.9 NE 11 13 6 7 1017.4 1016.8 0.0
15/12:30am 12.7 10.4 7.4 70 2.6 ENE 9 13 5 7 1017.6 1017.0 0.0
15/12:00am 13.0 11.3 7.5 69 2.7 ENE 6 9 3 5 1017.8 1017.2 0.0
 
Date/Time
WST
Temp
°C
App
Temp
°C
Dew
Point
°C
Rel
Hum
%
Delta-T
°C
Wind Press
QNH
hPa
Press
MSL
hPa
Rain since
9am
mm
Dir  Spd
km/h
Gust
km/h
Spd
kts
Gust
kts
14/11:30pm 13.1 11.2 7.5 69 2.8 E 7 9 4 5 1018.0 1017.4 0.0
14/11:00pm 13.7 11.9 7.2 65 3.2 E 6 7 3 4 1018.2 1017.7 0.0
14/10:30pm 14.0 11.7 7.5 65 3.3 S 9 11 5 6 1018.1 1017.6 0.0
14/10:00pm 14.4 12.7 7.5 63 3.5 S 6 9 3 5 1018.4 1017.9 0.0
14/09:30pm 14.7 12.8 7.7 63 3.5 S 7 9 4 5 1018.6 1018.1 0.0
14/09:00pm 15.9 14.7 7.9 59 4.1 ESE 4 7 2 4 1018.4 1017.9 0.0
14/08:30pm 16.2 14.5 7.4 56 4.5 ESE 6 7 3 4 1018.3 1017.8 0.0
14/08:00pm 17.5 15.8 7.5 52 5.1 ESE 6 9 3 5 1018.2 1017.7 0.0
14/07:30pm 17.5 15.5 7.3 51 5.2 ESE 7 9 4 5 1018.0 1017.4 0.0
14/07:00pm 18.3 16.0 7.4 49 5.6 ESE 9 11 5 6 1017.8 1017.2 0.0
14/06:30pm 19.0 16.7 7.4 47 6.0 ESE 9 9 5 5 1017.4 1016.8 0.0
14/06:00pm 20.3 18.0 7.3 43 6.8 ESE 9 11 5 6 1017.2 1016.6 0.0
14/05:30pm 21.1 19.1 7.0 40 7.3 E 7 9 4 5 1017.0 1016.4 0.0
14/05:00pm 21.6 19.5 6.7 38 7.7 E 7 13 4 7 1016.9 1016.3 0.0
14/04:30pm 21.4 18.9 6.5 38 7.7 SSE 9 13 5 7 1016.8 1016.2 0.0
14/04:00pm 21.5 19.6 6.6 38 7.7 S 6 11 3 6 1017.0 1016.4 0.0
14/03:30pm 21.7 19.2 6.4 37 7.9 S 9 11 5 6 1017.1 1016.5 0.0
14/03:00pm 21.2 18.6 6.3 38 7.7 S 9 13 5 7 1017.2 1016.6 0.0
14/02:30pm 21.3 19.4 6.8 39 7.5 E 6 11 3 6 1017.4 1016.8 0.0
14/02:00pm 20.4 18.2 6.0 39 7.3 SW 7 11 4 6 1017.6 1017.0 0.0
14/01:30pm 20.2 18.3 6.5 41 7.0 E 6 7 3 4 1018.0 1017.4 0.0
14/01:00pm 19.1 16.6 6.6 44 6.4 SE 9 13 5 7 1018.3 1017.8 0.0
14/12:30pm 18.9 16.5 7.0 46 6.1 ENE 9 19 5 10 1018.7 1018.2 0.0
14/12:00pm 18.6 16.1 6.4 45 6.2 E 9 17 5 9 1018.9 1018.4 0.0
14/11:30am 17.5 14.6 6.7 49 5.5 ENE 11 20 6 11 1019.5 1018.9 0.0
14/11:00am 16.9 14.1 7.0 52 5.0 ESE 11 17 6 9 1019.7 1019.1 0.0
14/10:30am 16.0 13.5 6.7 54 4.7 SE 9 19 5 10 1019.8 1019.2 0.0
14/10:00am 15.3 11.9 7.6 60 3.9 SE 15 20 8 11 1020.0 1019.4 0.0
14/09:30am 14.3 10.8 8.7 69 2.9 SE 17 20 9 11 1020.1 1019.5 0.0
14/09:00am 13.2 10.9 10.6 84 1.4 SE 13 17 7 9 1019.9 1019.3 0.0
14/08:30am 11.9 11.0 11.4 97 0.3 ESE 7 9 4 5 1019.5 1018.9 0.0
14/08:00am 10.7 10.9 10.4 98 0.2 CALM 0 0 0 0 1019.4 1018.8 0.0
14/07:47am 10.1 10.2 10.0 99 0.1 CALM 0 0 0 0 1019.3 1018.7 0.0
14/07:30am 8.9 8.2 8.6 98 0.1 NNE 2 6 1 3 1019.2 1018.6 0.0
14/07:23am 8.8 7.3 8.5 98 0.1 NNE 6 7 3 4 1018.9 1018.4 0.0
14/07:00am 8.1 5.9 7.8 98 0.1 NNE 9 11 5 6 1018.9 1018.4 0.0
14/06:30am 8.5 8.1 8.1 97 0.2 CALM 0 0 0 0 1018.5 1018.0 0.0
14/06:15am 8.7 7.0 8.3 97 0.2 SSW 7 9 4 5 1018.1 1017.6 0.0
14/06:10am 8.9 7.2 8.3 96 0.3 SW 7 9 4 5 1018.0 1017.4 0.0
14/06:07am 9.1 7.6 8.5 96 0.3 SW 6 9 3 5 1018.0 1017.4 0.0
14/06:00am 9.1 7.4 8.5 96 0.3 WSW 7 7 4 4 1018.0 1017.4 0.0
14/05:30am 9.5 7.9 8.9 96 0.3 WSW 7 9 4 5 1017.7 1017.1 0.0
14/05:00am 9.4 8.0 8.8 96 0.3 W 6 7 3 4 1017.3 1016.7 0.0
14/04:30am 9.7 8.3 8.9 95 0.4 SW 6 7 3 4 1016.9 1016.3 0.0
14/04:00am 10.1 8.8 9.3 95 0.4 SW 6 7 3 4 1016.8 1016.2 0.0
14/03:30am 10.4 9.2 9.6 95 0.4 W 6 9 3 5 1016.7 1016.1 0.0
14/03:00am 10.6 9.3 9.8 95 0.4 NNW 7 9 4 5 1017.0 1016.4 0.0
14/02:30am 11.4 10.5 10.5 94 0.5 W 6 7 3 4 1017.1 1016.5 0.0
14/02:00am 11.9 11.0 10.8 93 0.6 W 6 7 3 4 1017.2 1016.6 0.0
14/01:30am 12.5 11.6 11.2 92 0.7 W 7 9 4 5 1017.4 1016.8 0.0
14/01:00am 12.8 11.6 11.5 92 0.7 WSW 9 11 5 6 1017.4 1016.8 0.0
14/12:30am 13.0 13.5 11.6 91 0.8 CALM 0 7 0 4 1017.2 1016.6 0.0
14/12:00am 13.4 12.3 11.8 90 0.9 SW 9 11 5 6 1017.0 1016.4 0.0
 
Date/Time
WST
Temp
°C
App
Temp
°C
Dew
Point
°C
Rel
Hum
%
Delta-T
°C
Wind Press
QNH
hPa
Press
MSL
hPa
Rain since
9am
mm
Dir  Spd
km/h
Gust
km/h
Spd
kts
Gust
kts
13/11:30pm 14.0 13.3 12.0 88 1.1 WSW 7 11 4 6 1017.0 1016.4 0.0
13/11:00pm 14.6 13.2 12.3 86 1.3 SW 11 15 6 8 1017.0 1016.4 0.0
13/10:30pm 15.1 12.7 12.6 85 1.4 WSW 17 22 9 12 1016.8 1016.2 0.0
13/10:00pm 15.4 13.8 12.9 85 1.4 WSW 13 19 7 10 1016.4 1015.9 0.0
13/09:30pm 15.9 14.0 13.0 83 1.6 WSW 15 20 8 11 1016.6 1016.0 0.0
13/09:00pm 16.3 12.6 12.8 80 2.0 WSW 24 33 13 18 1016.2 1015.7 0.0
13/08:30pm 16.6 13.5 13.3 81 1.9 WSW 22 32 12 17 1015.8 1015.2 0.0
13/08:00pm 16.6 13.0 12.9 79 2.1 WSW 24 32 13 17 1015.4 1014.8 0.0
13/07:30pm 17.2 13.6 13.1 77 2.3 W 24 32 13 17 1014.9 1014.3 0.0
13/07:00pm 17.2 13.3 14.3 83 1.7 WSW 28 37 15 20 1014.7 1014.1 0.0
13/06:30pm 18.7 13.8 13.6 72 3.0 W 32 44 17 24 1014.2 1013.6 0.0
13/06:00pm 19.1 13.6 13.5 70 3.3 W 35 44 19 24 1013.4 1012.8 0.0
13/05:30pm 21.1 14.9 12.8 59 4.8 W 37 52 20 28 1012.5 1011.9 0.0
13/05:08pm 22.6 16.3 11.0 48 6.6 W 35 44 19 24 1011.8 1011.2 0.0
13/05:00pm 24.1 18.5 10.0 41 7.9 WNW 30 48 16 26 1011.7 1011.0 0.0
13/04:30pm 24.1 16.5 8.9 38 8.3 NW 39 50 21 27 1011.4 1010.7 0.0
13/04:07pm 24.4 15.9 8.4 36 8.7 NW 43 61 23 33 1011.1 1010.5 0.0
13/04:00pm 24.5 16.3 8.0 35 8.9 NW 41 57 22 31 1011.0 1010.4 0.0
13/03:31pm 25.1 16.3 7.3 32 9.5 NNW 43 61 23 33 1011.1 1010.5 0.0
13/03:30pm 25.3 16.2 7.0 31 9.8 NNW 44 61 24 33 1011.1 1010.5 0.0
13/03:11pm 25.1 16.6 6.8 31 9.7 NW 41 59 22 32 1011.2 1010.6 0.0
13/03:00pm 24.9 16.1 5.7 29 10.0 NNW 41 54 22 29 1011.6 1010.9 0.0
13/02:30pm 25.4 15.9 4.0 25 10.8 N 43 56 23 30 1011.6 1010.9 0.0

Other formats

Comma delimited format used in spreadsheet applications
http://www.bom.gov.au/fwo/IDW60801/IDW60801.94429.axf

JavaScript Object Notation format (JSON) in row-major order
http://www.bom.gov.au/fwo/IDW60801/IDW60801.94429.json

Data quality

Most of these data are generated automatically and are frequently updated. Quality checks on data are not normally performed. It is possible for incorrect values to appear. Refer to information at About Latest Weather Observations and please check the disclaimer before using these data.